Time;durP1;ratioP1;P1;durP2;ratioP2;P2;SDS_P1;SDS_P2;PMS_P1;PMS_P2;Temp;Humidity;BMP_temperature;BMP_pressure;BME280_temperature;BME280_humidity;BME280_pressure;Samples;Min_cycle;Max_cycle;Signal;HPM_P1;HPM_P2
2023/11/05 00:01:37;;;;;;;;;;;;;;;6.78;100.00;98110.31;5053955;28;20377;-61
2023/11/05 00:04:04;;;;;;;;;;;;;;;6.79;100.00;98104.81;5053974;28;20405;-60
2023/11/05 00:06:31;;;;;;;;;;;;;;;6.82;100.00;98122.75;5053865;28;19969;-61
2023/11/05 00:08:57;;;;;;;;;;;;;;;6.81;100.00;98118.50;5056484;28;19921;-58
2023/11/05 00:11:23;;;;;;;;;;;;;;;6.83;100.00;98100.63;5073606;28;19971;-57
2023/11/05 00:13:49;;;;;;;;;;;;;;;6.85;100.00;98108.28;5072263;28;19974;-60
2023/11/05 00:16:14;;;;;;;;;;;;;;;6.85;100.00;98092.47;5073698;28;19924;-59
2023/11/05 00:18:40;;;;;;;;;;;;;;;6.85;100.00;98105.63;5055740;28;19920;-60
2023/11/05 00:21:05;;;;;;;;;;;;;;;6.86;100.00;98093.28;5053305;28;19920;-59
2023/11/05 00:23:31;;;;;;;;;;;;;;;6.85;100.00;98086.41;5053583;28;19950;-59
2023/11/05 00:25:57;;;;;;;;;;;;;;;6.87;100.00;98079.84;5072904;28;19920;-58
2023/11/05 00:28:22;;;;;;;;;;;;;;;6.93;100.00;98070.19;5073120;28;19921;-59
2023/11/05 00:30:48;;;;;;;;;;;;;;;6.90;100.00;98060.94;5071948;28;19927;-60
2023/11/05 00:33:13;;;;;;;;;;;;;;;6.89;100.00;98061.97;5072083;28;19931;-59
2023/11/05 00:35:39;;;;;;;;;;;;;;;6.90;100.00;98057.50;5072988;28;19920;-60
2023/11/05 00:38:04;;;;;;;;;;;;;;;6.89;100.00;98054.06;5072965;28;19970;-60
2023/11/05 00:40:30;;;;;;;;;;;;;;;6.88;100.00;98064.84;5073160;28;19920;-59
2023/11/05 00:42:56;;;;;;;;;;;;;;;6.91;100.00;98067.81;5073365;28;19967;-59
2023/11/05 00:45:22;;;;;;;;;;;;;;;6.92;100.00;98047.53;5055072;28;19966;-59
2023/11/05 00:47:47;;;;;;;;;;;;;;;6.90;100.00;98033.78;5071649;28;19928;-60
2023/11/05 00:50:14;;;;;;;;;;;;;;;6.92;100.00;98037.78;5055063;28;19963;-61
2023/11/05 00:52:40;;;;;;;;;;;;;;;6.96;100.00;98038.88;5054939;28;19971;-61
2023/11/05 00:55:05;;;;;;;;;;;;;;;6.95;100.00;98015.41;5071651;28;19920;-62
2023/11/05 00:57:31;;;;;;;;;;;;;;;6.95;100.00;98021.47;5071528;28;19928;-60
2023/11/05 00:59:58;;;;;;;;;;;;;;;6.91;100.00;98001.94;5072874;28;20373;-60
2023/11/05 01:02:23;;;;;;;;;;;;;;;6.99;100.00;98024.41;5072460;28;19920;-61
2023/11/05 01:04:49;;;;;;;;;;;;;;;6.97;100.00;98024.66;5061803;28;20275;-61
2023/11/05 01:07:14;;;;;;;;;;;;;;;7.00;100.00;98031.25;5052841;28;19982;-59
2023/11/05 01:09:39;;;;;;;;;;;;;;;7.02;100.00;98043.16;5061397;28;19921;-61
2023/11/05 01:12:05;;;;;;;;;;;;;;;7.01;100.00;98038.13;5072480;28;19924;-60
2023/11/05 01:14:30;;;;;;;;;;;;;;;7.01;100.00;98035.50;5052807;28;20290;-62
2023/11/05 01:16:56;;;;;;;;;;;;;;;7.01;100.00;98024.97;5052545;28;19947;-60
2023/11/05 01:19:21;;;;;;;;;;;;;;;7.02;100.00;98035.25;5052604;28;20504;-60
2023/11/05 01:21:47;;;;;;;;;;;;;;;7.08;100.00;98028.19;5056458;28;20398;-59
2023/11/05 01:24:12;;;;;;;;;;;;;;;7.07;100.00;98018.72;5071920;28;19927;-61
2023/11/05 01:26:39;;;;;;;;;;;;;;;7.10;100.00;98020.06;5072175;28;19924;-60
2023/11/05 01:29:05;;;;;;;;;;;;;;;7.08;100.00;98019.50;5070801;28;19978;-61
2023/11/05 01:31:33;;;;;;;;;;;;;;;7.09;100.00;98023.72;5070800;28;19924;-60
2023/11/05 01:33:58;;;;;;;;;;;;;;;7.12;100.00;98028.47;5071907;28;19921;-60
2023/11/05 01:36:24;;;;;;;;;;;;;;;7.13;100.00;98019.56;5071731;28;19946;-59
2023/11/05 01:38:49;;;;;;;;;;;;;;;7.15;100.00;98020.91;5071623;28;20368;-59
2023/11/05 01:41:14;;;;;;;;;;;;;;;7.19;100.00;98023.84;5054016;28;19953;-59
2023/11/05 01:43:40;;;;;;;;;;;;;;;7.22;100.00;98015.44;5069773;28;19920;-60
2023/11/05 01:46:05;;;;;;;;;;;;;;;7.23;100.00;98019.66;5059341;28;19921;-59
2023/11/05 01:48:31;;;;;;;;;;;;;;;7.26;100.00;98006.78;5050512;28;20455;-60
2023/11/05 01:50:56;;;;;;;;;;;;;;;7.25;100.00;98004.38;5050470;28;19968;-61
2023/11/05 01:53:23;;;;;;;;;;;;;;;7.27;100.00;98005.72;5059255;28;20015;-61
2023/11/05 01:55:48;;;;;;;;;;;;;;;7.27;100.00;98003.09;5049516;28;19920;-60
2023/11/05 01:58:13;;;;;;;;;;;;;;;7.30;100.00;98007.06;5034121;28;19925;-58
2023/11/05 02:00:39;;;;;;;;;;;;;;;7.28;100.00;97990.72;5051892;28;20374;-60
2023/11/05 02:03:04;;;;;;;;;;;;;;;7.30;100.00;97995.75;5034311;28;19947;-60
2023/11/05 02:05:31;;;;;;;;;;;;;;;7.32;100.00;97997.06;5071628;28;19920;-60
2023/11/05 02:07:57;;;;;;;;;;;;;;;7.35;100.00;97999.19;5053886;28;19924;-61
2023/11/05 02:10:22;;;;;;;;;;;;;;;7.38;100.00;98013.72;5071549;28;19920;-64
2023/11/05 02:12:55;;;;;;;;;;;;;;;7.41;100.00;97989.50;5053550;28;19924;-60
2023/11/05 02:15:21;;;;;;;;;;;;;;;7.41;100.00;97998.22;5070409;28;19920;-61
2023/11/05 02:17:47;;;;;;;;;;;;;;;7.42;100.00;97993.75;5070348;28;20297;-60
2023/11/05 02:20:32;;;;;;;;;;;;;;;7.43;100.00;98004.03;5070868;28;19920;-59
2023/11/05 02:22:58;;;;;;;;;;;;;;;7.46;100.00;97992.97;5053610;28;19924;-60
2023/11/05 02:25:23;;;;;;;;;;;;;;;7.49;100.00;97989.84;5071563;28;19928;-61
2023/11/05 02:27:49;;;;;;;;;;;;;;;7.50;100.00;97993.28;5071880;28;20014;-61
2023/11/05 02:30:16;;;;;;;;;;;;;;;7.49;100.00;97986.41;5070310;28;19924;-60
2023/11/05 02:32:42;;;;;;;;;;;;;;;7.51;100.00;97973.78;5053776;28;20015;-60
2023/11/05 02:35:07;;;;;;;;;;;;;;;7.56;100.00;97968.53;5058541;28;20019;-59
2023/11/05 02:37:33;;;;;;;;;;;;;;;7.58;99.74;97969.06;5070331;28;19931;-60
2023/11/05 02:39:59;;;;;;;;;;;;;;;7.59;99.55;97948.75;5049396;28;19920;-60
2023/11/05 02:42:24;;;;;;;;;;;;;;;7.59;99.72;97927.66;5050540;28;19991;-61
2023/11/05 02:44:51;;;;;;;;;;;;;;;7.60;99.82;97926.63;5051810;28;19927;-63
2023/11/05 02:47:16;;;;;;;;;;;;;;;7.62;99.79;97935.88;5050416;28;19932;-60
2023/11/05 02:49:42;;;;;;;;;;;;;;;7.65;99.82;97926.69;5054620;28;19920;-61
2023/11/05 02:52:07;;;;;;;;;;;;;;;7.67;99.55;97943.81;5037579;28;19947;-61
2023/11/05 02:54:33;;;;;;;;;;;;;;;7.70;99.26;97934.59;5055535;28;19959;-61
2023/11/05 02:56:59;;;;;;;;;;;;;;;7.73;99.47;97932.28;5055545;28;19964;-60
2023/11/05 02:59:26;;;;;;;;;;;;;;;7.77;99.10;97937.03;5055460;28;19931;-62
2023/11/05 03:01:51;;;;;;;;;;;;;;;7.81;99.34;97967.13;5054099;28;19933;-61
2023/11/05 03:04:18;;;;;;;;;;;;;;;7.83;98.80;97959.75;5054805;28;19916;-61
2023/11/05 03:06:49;;;;;;;;;;;;;;;7.85;98.85;97961.09;5054230;28;19990;-61
2023/11/05 03:09:17;;;;;;;;;;;;;;;7.88;98.46;97952.69;5061866;28;19925;-61
2023/11/05 03:11:44;;;;;;;;;;;;;;;7.93;98.07;97959.81;5074528;28;20416;-61
2023/11/05 03:14:10;;;;;;;;;;;;;;;7.96;98.04;97943.47;5073504;28;19924;-60
2023/11/05 03:16:37;;;;;;;;;;;;;;;7.98;97.96;97949.28;5073259;28;20408;-61
2023/11/05 03:19:03;;;;;;;;;;;;;;;8.03;97.57;97937.97;5072369;28;20016;-60
2023/11/05 03:21:31;;;;;;;;;;;;;;;8.05;97.49;97931.38;5074536;28;19924;-61
2023/11/05 03:23:58;;;;;;;;;;;;;;;8.08;97.54;97925.59;5074637;28;19920;-61
2023/11/05 03:26:24;;;;;;;;;;;;;;;8.12;97.09;97910.84;5069225;28;19946;-60
2023/11/05 03:28:49;;;;;;;;;;;;;;;8.15;97.38;97922.75;5054249;28;19921;-61
2023/11/05 03:31:15;;;;;;;;;;;;;;;8.14;97.35;97914.00;5054404;28;20023;-62
2023/11/05 03:33:41;;;;;;;;;;;;;;;8.19;97.27;97907.97;5054170;28;19928;-61
2023/11/05 03:36:06;;;;;;;;;;;;;;;8.24;96.54;97909.84;5053057;28;20356;-59
2023/11/05 03:38:32;;;;;;;;;;;;;;;8.24;96.74;97894.00;5036227;28;19923;-58
2023/11/05 03:40:57;;;;;;;;;;;;;;;8.25;96.80;97898.22;5067052;28;19920;-62
2023/11/05 03:43:23;;;;;;;;;;;;;;;8.26;96.52;97892.66;5073439;28;20404;-60
2023/11/05 03:45:48;;;;;;;;;;;;;;;8.28;95.97;97895.84;5070908;28;20062;-62
2023/11/05 03:48:14;;;;;;;;;;;;;;;8.31;96.13;97899.81;5053967;28;19960;-60
2023/11/05 03:50:39;;;;;;;;;;;;;;;8.31;96.27;97884.78;5053982;28;19929;-58
2023/11/05 03:53:05;;;;;;;;;;;;;;;8.34;95.67;97886.09;5061622;28;19928;-60
2023/11/05 03:55:31;;;;;;;;;;;;;;;8.37;96.15;97891.66;5072722;28;19999;-59
2023/11/05 03:57:57;;;;;;;;;;;;;;;8.38;95.74;97888.00;5074278;28;20031;-62
2023/11/05 04:00:23;;;;;;;;;;;;;;;8.43;95.99;97889.06;5073232;28;20053;-59
2023/11/05 04:02:48;;;;;;;;;;;;;;;8.43;95.58;97883.78;5073875;28;19960;-60
2023/11/05 04:05:15;;;;;;;;;;;;;;;8.46;95.21;97873.50;5072377;28;20014;-61
2023/11/05 04:07:42;;;;;;;;;;;;;;;8.49;95.43;97862.41;5073015;28;19930;-61
2023/11/05 04:10:07;;;;;;;;;;;;;;;8.49;95.65;97851.84;5060128;28;19966;-62
2023/11/05 04:12:34;;;;;;;;;;;;;;;8.51;94.58;97867.44;5053755;28;20023;-62
2023/11/05 04:15:04;;;;;;;;;;;;;;;8.54;95.31;97865.06;5059609;28;20381;-61
2023/11/05 04:17:30;;;;;;;;;;;;;;;8.54;94.99;97859.78;5073683;28;20399;-60
2023/11/05 04:19:55;;;;;;;;;;;;;;;8.57;94.89;97850.56;5073686;28;20024;-62
2023/11/05 04:22:21;;;;;;;;;;;;;;;8.61;94.02;97846.31;5073517;28;20376;-62
2023/11/05 04:24:46;;;;;;;;;;;;;;;8.65;94.48;97844.75;5072924;28;19921;-60
2023/11/05 04:27:12;;;;;;;;;;;;;;;8.64;94.23;97841.31;5065266;28;19932;-59
2023/11/05 04:29:37;;;;;;;;;;;;;;;8.64;93.63;97835.22;5053235;28;20225;-60
2023/11/05 04:32:03;;;;;;;;;;;;;;;8.65;94.19;97855.31;5054056;28;19932;-60
2023/11/05 04:34:32;;;;;;;;;;;;;;;8.64;93.86;97829.94;5052485;28;19920;-61
2023/11/05 04:36:57;;;;;;;;;;;;;;;8.71;93.81;97822.56;5068760;28;19932;-63
2023/11/05 04:39:23;;;;;;;;;;;;;;;8.71;93.73;97835.78;5072999;28;19928;-62
2023/11/05 04:41:48;;;;;;;;;;;;;;;8.72;93.64;97828.66;5072999;28;20035;-60
2023/11/05 04:44:14;;;;;;;;;;;;;;;8.75;94.16;97817.56;5072896;28;19920;-59
2023/11/05 04:46:40;;;;;;;;;;;;;;;8.81;93.83;97827.06;5071628;28;19955;-61
2023/11/05 04:49:05;;;;;;;;;;;;;;;8.79;93.62;97847.66;5073071;28;20042;-61
2023/11/05 04:51:30;;;;;;;;;;;;;;;8.82;93.58;97823.34;5072868;28;20038;-60
2023/11/05 04:53:56;;;;;;;;;;;;;;;8.84;93.11;97816.75;5072584;28;20301;-60
2023/11/05 04:56:22;;;;;;;;;;;;;;;8.88;92.73;97822.28;5072827;28;19928;-59
2023/11/05 04:58:47;;;;;;;;;;;;;;;8.90;92.83;97817.53;5068852;28;19927;-60
2023/11/05 05:01:12;;;;;;;;;;;;;;;8.95;92.60;97806.19;5072855;28;19924;-60
2023/11/05 05:03:38;;;;;;;;;;;;;;;8.98;92.38;97830.25;5069968;28;19920;-60
2023/11/05 05:06:04;;;;;;;;;;;;;;;8.99;91.96;97823.88;5071889;28;19927;-60
2023/11/05 05:08:29;;;;;;;;;;;;;;;9.01;92.35;97824.41;5065071;28;20007;-60
2023/11/05 05:10:55;;;;;;;;;;;;;;;9.03;92.15;97826.78;5071355;28;20022;-59
2023/11/05 05:13:20;;;;;;;;;;;;;;;9.02;91.80;97828.63;5069050;28;19920;-60
2023/11/05 05:15:46;;;;;;;;;;;;;;;9.03;92.39;97824.13;5071097;28;19927;-60
2023/11/05 05:18:11;;;;;;;;;;;;;;;9.03;91.90;97829.44;5061576;28;19929;-61
2023/11/05 05:20:37;;;;;;;;;;;;;;;9.06;91.93;97823.63;5052321;28;19926;-60
2023/11/05 05:23:03;;;;;;;;;;;;;;;9.09;91.27;97825.75;5053671;28;19924;-58
2023/11/05 05:25:29;;;;;;;;;;;;;;;9.13;91.65;97813.56;5051022;28;19921;-61
2023/11/05 05:27:54;;;;;;;;;;;;;;;9.15;90.98;97805.38;5052703;28;19964;-60
2023/11/05 05:30:20;;;;;;;;;;;;;;;9.19;90.79;97807.22;5071994;28;19966;-62
2023/11/05 05:32:45;;;;;;;;;;;;;;;9.25;91.13;97795.56;5055991;28;19928;-61
2023/11/05 05:35:11;;;;;;;;;;;;;;;9.28;90.80;97805.63;5052210;28;20386;-61
2023/11/05 05:37:36;;;;;;;;;;;;;;;9.31;90.81;97802.44;5053100;28;19932;-61
2023/11/05 05:40:04;;;;;;;;;;;;;;;9.36;90.21;97806.16;5052306;28;19921;-60
2023/11/05 05:42:30;;;;;;;;;;;;;;;9.38;90.43;97804.00;5052238;28;19920;-59
2023/11/05 05:44:55;;;;;;;;;;;;;;;9.39;90.11;97809.03;5052125;28;19925;-61
2023/11/05 05:47:21;;;;;;;;;;;;;;;9.40;89.98;97788.66;5058544;28;20022;-61
2023/11/05 05:49:47;;;;;;;;;;;;;;;9.40;89.10;97778.88;5071716;28;19927;-60
2023/11/05 05:52:13;;;;;;;;;;;;;;;9.43;89.00;97769.63;5072140;28;19924;-61
2023/11/05 05:54:38;;;;;;;;;;;;;;;9.45;89.33;97786.03;5071935;28;19965;-62
2023/11/05 05:57:04;;;;;;;;;;;;;;;9.49;89.02;97784.41;5071223;28;20374;-61
2023/11/05 05:59:32;;;;;;;;;;;;;;;9.46;88.84;97771.72;5072055;28;20404;-62
2023/11/05 06:01:57;;;;;;;;;;;;;;;9.39;88.93;97774.66;5066221;28;20321;-63
2023/11/05 06:04:23;;;;;;;;;;;;;;;9.37;89.24;97776.78;5053741;28;19928;-61
2023/11/05 06:06:49;;;;;;;;;;;;;;;9.37;88.55;97760.91;5053823;28;19924;-60
2023/11/05 06:09:19;;;;;;;;;;;;;;;9.39;88.81;97765.94;5057036;28;19920;-62
2023/11/05 06:11:45;;;;;;;;;;;;;;;9.40;89.24;97776.25;5064379;28;19932;-61
2023/11/05 06:14:10;;;;;;;;;;;;;;;9.39;89.22;97752.72;5050037;28;19921;-62
2023/11/05 06:16:36;;;;;;;;;;;;;;;9.45;89.23;97765.66;5051687;28;19978;-61
2023/11/05 06:19:02;;;;;;;;;;;;;;;9.46;88.84;97785.75;5051340;28;20308;-62
2023/11/05 06:21:27;;;;;;;;;;;;;;;9.50;89.01;97755.06;5050641;28;19925;-61
2023/11/05 06:23:53;;;;;;;;;;;;;;;9.50;89.09;97778.88;5066282;28;19926;-61
2023/11/05 06:26:19;;;;;;;;;;;;;;;9.53;88.49;97775.69;5074578;28;20373;-61
2023/11/05 06:28:44;;;;;;;;;;;;;;;9.55;87.95;97768.25;5075436;28;20355;-62
2023/11/05 06:31:10;;;;;;;;;;;;;;;9.57;87.78;97789.16;5073472;28;20027;-61
2023/11/05 06:33:35;;;;;;;;;;;;;;;9.61;87.62;97744.44;5075183;28;19931;-61
2023/11/05 06:36:01;;;;;;;;;;;;;;;9.63;87.71;97744.97;5073348;28;19973;-57
2023/11/05 06:38:30;;;;;;;;;;;;;;;9.64;86.86;97751.81;5071885;28;19981;-58
2023/11/05 06:40:55;;;;;;;;;;;;;;;9.63;87.81;97751.03;5075501;28;19924;-60
2023/11/05 06:43:21;;;;;;;;;;;;;;;9.63;87.37;97740.47;5073354;28;19920;-61
2023/11/05 06:45:47;;;;;;;;;;;;;;;9.67;86.81;97748.63;5075086;28;19928;-61
2023/11/05 06:48:12;;;;;;;;;;;;;;;9.67;86.50;97728.25;5074001;28;19931;-61
2023/11/05 06:50:38;;;;;;;;;;;;;;;9.64;86.70;97741.25;5075125;28;19920;-62
2023/11/05 06:53:03;;;;;;;;;;;;;;;9.65;86.74;97730.41;5075457;28;19924;-59
2023/11/05 06:55:29;;;;;;;;;;;;;;;9.66;87.16;97729.34;5075158;28;19943;-61
2023/11/05 06:57:54;;;;;;;;;;;;;;;9.66;86.32;97737.28;5075007;28;19924;-61
2023/11/05 07:00:20;;;;;;;;;;;;;;;9.69;86.58;97717.41;5069755;28;19927;-63
2023/11/05 07:02:46;;;;;;;;;;;;;;;9.68;87.13;97718.50;5057063;28;19929;-61
2023/11/05 07:05:11;;;;;;;;;;;;;;;9.72;86.25;97695.69;5066094;28;19924;-61
2023/11/05 07:07:37;;;;;;;;;;;;;;;9.73;86.40;97699.94;5074980;28;20418;-61
2023/11/05 07:10:04;;;;;;;;;;;;;;;9.73;86.08;97687.47;5070728;28;19927;-63
2023/11/05 07:12:30;;;;;;;;;;;;;;;9.74;85.96;97690.94;5071544;28;20390;-62
2023/11/05 07:14:56;;;;;;;;;;;;;;;9.78;86.08;97687.47;5070897;28;19931;-62
2023/11/05 07:17:21;;;;;;;;;;;;;;;9.84;85.08;97666.28;5074340;28;20293;-61
2023/11/05 07:19:47;;;;;;;;;;;;;;;9.88;85.46;97654.88;5074445;28;20423;-60
2023/11/05 07:22:12;;;;;;;;;;;;;;;9.95;84.02;97668.56;5055905;28;20097;-61
2023/11/05 07:24:38;;;;;;;;;;;;;;;9.99;84.61;97669.59;5055485;28;20377;-59
2023/11/05 07:27:04;;;;;;;;;;;;;;;10.02;84.01;97662.97;5055447;28;19920;-59
2023/11/05 07:29:30;;;;;;;;;;;;;;;10.02;83.94;97682.28;5054397;28;20070;-62
2023/11/05 07:31:56;;;;;;;;;;;;;;;10.02;83.90;97710.63;5055845;28;20055;-61
2023/11/05 07:34:21;;;;;;;;;;;;;;;10.00;83.79;97707.47;5054027;28;19927;-59
2023/11/05 07:36:47;;;;;;;;;;;;;;;9.94;84.41;97701.41;5052421;28;20039;-61
2023/11/05 07:39:12;;;;;;;;;;;;;;;10.05;83.45;97712.72;5053980;28;19920;-61
2023/11/05 07:41:38;;;;;;;;;;;;;;;10.11;84.06;97705.53;5054241;28;19924;-61
2023/11/05 07:44:03;;;;;;;;;;;;;;;10.15;83.32;97701.28;5053676;28;20023;-59
2023/11/05 07:46:30;;;;;;;;;;;;;;;10.19;82.78;97697.00;5057490;28;19964;-57
2023/11/05 07:48:56;;;;;;;;;;;;;;;10.28;82.51;97695.38;5064463;28;19925;-55
2023/11/05 07:51:22;;;;;;;;;;;;;;;10.33;82.48;97703.28;5058745;28;19931;-59
2023/11/05 07:53:49;;;;;;;;;;;;;;;10.39;82.42;97707.47;5054843;28;19925;-58
2023/11/05 07:56:14;;;;;;;;;;;;;;;10.38;82.18;97697.16;5062672;28;20357;-59
2023/11/05 07:58:40;;;;;;;;;;;;;;;10.41;82.03;97700.06;5074128;28;19978;-56
2023/11/05 08:01:06;;;;;;;;;;;;;;;10.43;81.18;97691.81;5060866;28;19931;-53
2023/11/05 08:03:31;;;;;;;;;;;;;;;10.45;81.21;97687.03;5053777;28;20094;-55
2023/11/05 08:05:57;;;;;;;;;;;;;;;10.44;81.13;97669.53;5053936;28;19920;-59
2023/11/05 08:08:23;;;;;;;;;;;;;;;10.45;81.79;97685.19;5055409;28;19927;-60
2023/11/05 08:10:48;;;;;;;;;;;;;;;10.40;81.34;97684.44;5068598;28;20023;-61
2023/11/05 08:13:14;;;;;;;;;;;;;;;10.43;81.16;97655.50;5072826;28;19977;-60
2023/11/05 08:15:40;;;;;;;;;;;;;;;10.44;81.88;97656.31;5071582;28;19927;-60
2023/11/05 08:18:05;;;;;;;;;;;;;;;10.48;80.96;97661.84;5070026;28;19928;-59
2023/11/05 08:20:32;;;;;;;;;;;;;;;10.44;80.75;97657.13;5053380;28;19924;-59
2023/11/05 08:22:58;;;;;;;;;;;;;;;10.47;80.65;97637.22;5057040;28;20065;-59
2023/11/05 08:25:24;;;;;;;;;;;;;;;10.50;80.96;97630.56;5062045;28;19974;-57
2023/11/05 08:27:50;;;;;;;;;;;;;;;10.55;80.02;97631.31;5053668;28;20356;-59
2023/11/05 08:30:16;;;;;;;;;;;;;;;10.59;80.21;97611.16;5058047;28;20025;-57
2023/11/05 08:32:42;;;;;;;;;;;;;;;10.63;79.74;97612.16;5058924;28;19924;-56
2023/11/05 08:35:11;;;;;;;;;;;;;;;10.68;79.46;97611.31;5056663;28;19974;-58
2023/11/05 08:37:37;;;;;;;;;;;;;;;10.68;79.43;97598.84;5053042;28;19928;-57
2023/11/05 08:40:09;;;;;;;;;;;;;;;10.74;79.22;97604.13;5059493;28;19928;-58
2023/11/05 08:42:35;;;;;;;;;;;;;;;10.70;79.27;97585.31;5036102;28;19948;-57
2023/11/05 08:45:00;;;;;;;;;;;;;;;10.72;78.89;97608.91;5059643;28;19920;-59
2023/11/05 08:47:26;;;;;;;;;;;;;;;10.74;78.82;97606.75;5054608;28;19978;-58
2023/11/05 08:49:51;;;;;;;;;;;;;;;10.77;79.42;97608.84;5056109;28;20606;-59
2023/11/05 08:52:19;;;;;;;;;;;;;;;10.83;78.33;97602.41;5058378;28;19925;-60
2023/11/05 08:54:44;;;;;;;;;;;;;;;10.88;77.88;97586.44;5057681;28;20306;-60
2023/11/05 08:57:10;;;;;;;;;;;;;;;10.94;76.98;97584.50;5057616;28;19928;-62
2023/11/05 08:59:35;;;;;;;;;;;;;;;10.96;77.14;97599.06;5058251;28;20360;-59
2023/11/05 09:02:02;;;;;;;;;;;;;;;10.97;76.89;97598.03;5055908;28;19924;-59
2023/11/05 09:04:28;;;;;;;;;;;;;;;10.99;76.54;97587.91;5061555;28;19926;-60
2023/11/05 09:06:53;;;;;;;;;;;;;;;11.04;76.36;97595.78;5054877;28;19956;-62
2023/11/05 09:09:19;;;;;;;;;;;;;;;11.12;76.19;97566.00;5056765;28;19921;-61
2023/11/05 09:11:45;;;;;;;;;;;;;;;11.23;75.71;97565.84;5060967;28;19931;-60
2023/11/05 09:14:11;;;;;;;;;;;;;;;11.28;75.29;97577.19;5057407;28;19925;-60
2023/11/05 09:16:36;;;;;;;;;;;;;;;11.28;75.02;97569.22;5058166;28;19925;-61
2023/11/05 09:19:03;;;;;;;;;;;;;;;11.31;75.30;97542.13;5059459;28;19920;-61
2023/11/05 09:21:28;;;;;;;;;;;;;;;11.30;74.80;97532.63;5055490;28;19978;-59
2023/11/05 09:23:54;;;;;;;;;;;;;;;11.28;75.02;97524.13;5057276;28;19921;-61
2023/11/05 09:26:21;;;;;;;;;;;;;;;11.28;74.96;97526.00;5054566;28;19930;-61
2023/11/05 09:28:47;;;;;;;;;;;;;;;11.33;74.86;97524.06;5058211;28;19920;-60
2023/11/05 09:31:12;;;;;;;;;;;;;;;11.30;74.82;97506.09;5059558;28;19931;-63
2023/11/05 09:33:38;;;;;;;;;;;;;;;11.34;74.55;97506.28;5070227;28;19920;-62
2023/11/05 09:36:04;;;;;;;;;;;;;;;11.40;74.40;97513.09;5063019;28;19920;-59
2023/11/05 09:38:29;;;;;;;;;;;;;;;11.37;74.21;97519.75;5070570;28;20295;-60
2023/11/05 09:40:55;;;;;;;;;;;;;;;11.37;74.11;97509.16;5054464;28;19921;-59
2023/11/05 09:43:20;;;;;;;;;;;;;;;11.42;73.96;97510.94;5051569;28;19928;-61
2023/11/05 09:45:48;;;;;;;;;;;;;;;11.44;74.39;97516.78;5050908;28;19950;-61
2023/11/05 09:48:14;;;;;;;;;;;;;;;11.47;73.70;97518.84;5050838;28;20366;-60
2023/11/05 09:50:41;;;;;;;;;;;;;;;11.44;74.05;97508.81;5050796;28;19927;-59
2023/11/05 09:53:14;;;;;;;;;;;;;;;11.42;73.85;97505.66;5052202;28;20017;-61
2023/11/05 09:55:40;;;;;;;;;;;;;;;11.42;74.02;97491.59;5051741;28;19928;-59
2023/11/05 09:58:05;;;;;;;;;;;;;;;11.41;74.08;97516.53;5049681;28;19925;-60
2023/11/05 10:00:31;;;;;;;;;;;;;;;11.42;74.17;97505.66;5051768;28;19927;-60
2023/11/05 10:02:57;;;;;;;;;;;;;;;11.43;74.24;97509.88;5052004;28;19924;-61
2023/11/05 10:05:24;;;;;;;;;;;;;;;11.47;74.42;97475.59;5051547;28;19929;-61
2023/11/05 10:07:50;;;;;;;;;;;;;;;11.47;74.09;97504.75;5051630;28;20027;-60
2023/11/05 10:10:16;;;;;;;;;;;;;;;11.51;74.00;97511.09;5064235;28;20463;-60
2023/11/05 10:12:41;;;;;;;;;;;;;;;11.52;73.94;97500.16;5071827;28;20026;-60
2023/11/05 10:15:07;;;;;;;;;;;;;;;11.53;73.91;97504.41;5071607;28;19958;-60
2023/11/05 10:17:33;;;;;;;;;;;;;;;11.52;74.09;97510.78;5071774;28;20309;-63
2023/11/05 10:19:59;;;;;;;;;;;;;;;11.55;74.10;97523.47;5070432;28;19920;-62
2023/11/05 10:22:24;;;;;;;;;;;;;;;11.56;74.11;97525.06;5070390;28;19931;-60
2023/11/05 10:24:51;;;;;;;;;;;;;;;11.63;74.63;97523.91;5070458;28;19974;-62
2023/11/05 10:27:27;;;;;;;;;;;;;;;11.71;74.42;97513.44;5071345;28;20363;-60
2023/11/05 10:29:53;;;;;;;;;;;;;;;11.74;74.13;97507.53;5071672;28;19920;-61
2023/11/05 10:32:19;;;;;;;;;;;;;;;11.85;74.37;97513.47;5070246;28;20282;-60
2023/11/05 10:34:45;;;;;;;;;;;;;;;11.91;73.49;97530.09;5053429;28;19942;-60
2023/11/05 10:37:10;;;;;;;;;;;;;;;11.95;73.26;97523.16;5071397;28;19931;-59
2023/11/05 10:39:36;;;;;;;;;;;;;;;12.02;73.26;97526.22;5071608;28;19932;-62
2023/11/05 10:42:02;;;;;;;;;;;;;;;12.04;73.05;97527.50;5071317;28;20298;-62
2023/11/05 10:44:28;;;;;;;;;;;;;;;12.02;73.09;97526.22;5071396;28;19920;-62
2023/11/05 10:46:56;;;;;;;;;;;;;;;12.00;73.39;97518.56;5071286;28;20018;-60
2023/11/05 10:49:21;;;;;;;;;;;;;;;12.01;73.74;97516.69;5069924;28;19920;-60
2023/11/05 10:51:48;;;;;;;;;;;;;;;12.00;73.48;97505.28;5052967;28;20365;-60
2023/11/05 10:54:13;;;;;;;;;;;;;;;12.00;73.47;97499.97;5070161;28;19927;-60
2023/11/05 10:56:42;;;;;;;;;;;;;;;12.05;73.65;97491.88;5070038;28;19924;-59
2023/11/05 10:59:09;;;;;;;;;;;;;;;12.10;73.53;97501.63;5071353;28;20275;-60
2023/11/05 11:01:35;;;;;;;;;;;;;;;12.10;73.52;97514.13;5069922;28;19931;-61
2023/11/05 11:04:11;;;;;;;;;;;;;;;12.15;73.24;97519.38;5071015;28;19920;-61
2023/11/05 11:06:39;;;;;;;;;;;;;;;12.20;73.21;97519.25;5071247;28;19932;-62
2023/11/05 11:09:11;;;;;;;;;;;;;;;12.29;73.79;97506.88;5069828;28;19963;-62
2023/11/05 11:11:39;;;;;;;;;;;;;;;12.35;73.01;97516.31;5075082;28;20420;-60
2023/11/05 11:14:04;;;;;;;;;;;;;;;12.29;73.28;97509.53;5074693;28;20451;-61
2023/11/05 11:16:30;;;;;;;;;;;;;;;12.36;72.82;97512.59;5074934;28;19928;-63
2023/11/05 11:18:56;;;;;;;;;;;;;;;12.40;72.70;97512.78;5074435;28;19925;-60
2023/11/05 11:21:22;;;;;;;;;;;;;;;12.42;72.76;97516.72;5074562;28;20289;-61
2023/11/05 11:23:49;;;;;;;;;;;;;;;12.40;72.79;97510.13;5074380;28;20278;-59
2023/11/05 11:26:19;;;;;;;;;;;;;;;12.33;72.87;97545.06;5074439;28;20458;-61
2023/11/05 11:28:45;;;;;;;;;;;;;;;12.43;73.34;97538.78;5074106;28;19930;-61
2023/11/05 11:31:11;;;;;;;;;;;;;;;12.49;73.37;97545.56;5074325;28;20369;-61
2023/11/05 11:33:36;;;;;;;;;;;;;;;12.48;72.74;97544.78;5073009;28;19920;-61
2023/11/05 11:36:07;;;;;;;;;;;;;;;12.53;72.50;97548.41;5074060;28;19921;-60
2023/11/05 11:38:33;;;;;;;;;;;;;;;12.58;72.80;97553.63;5073933;28;19920;-61
2023/11/05 11:40:58;;;;;;;;;;;;;;;12.58;72.35;97543.00;5074459;28;19972;-60
2023/11/05 11:43:24;;;;;;;;;;;;;;;12.54;72.66;97557.97;5074071;28;19920;-61
2023/11/05 11:45:50;;;;;;;;;;;;;;;12.52;72.49;97552.16;5072985;28;20390;-62
2023/11/05 11:48:16;;;;;;;;;;;;;;;12.48;72.59;97544.00;5072603;28;19939;-61
2023/11/05 11:50:50;;;;;;;;;;;;;;;12.54;72.92;97539.38;5073887;28;19920;-61
2023/11/05 11:53:24;;;;;;;;;;;;;;;12.56;72.32;97535.34;5073985;28;19928;-62
2023/11/05 11:55:50;;;;;;;;;;;;;;;12.52;72.22;97526.38;5073829;28;20270;-61
2023/11/05 11:58:15;;;;;;;;;;;;;;;12.49;72.62;97532.28;5055787;28;19931;-61
2023/11/05 12:00:41;;;;;;;;;;;;;;;12.43;72.88;97520.94;5072913;28;20304;-61
2023/11/05 12:03:07;;;;;;;;;;;;;;;12.47;72.94;97515.81;5072720;28;19921;-60
2023/11/05 12:05:32;;;;;;;;;;;;;;;12.48;72.46;97528.84;5073712;28;19928;-62
2023/11/05 12:07:58;;;;;;;;;;;;;;;12.43;72.74;97525.47;5074085;28;19967;-62
2023/11/05 12:10:23;;;;;;;;;;;;;;;12.36;72.88;97528.53;5072305;28;19920;-60
2023/11/05 12:12:52;;;;;;;;;;;;;;;12.28;73.14;97537.97;5065918;28;19982;-59
2023/11/05 12:15:20;;;;;;;;;;;;;;;12.27;73.66;97544.38;5072873;28;19924;-59
2023/11/05 12:17:46;;;;;;;;;;;;;;;12.25;73.65;97535.09;5061666;28;20021;-60
2023/11/05 12:20:12;;;;;;;;;;;;;;;12.26;73.62;97536.69;5059957;28;20023;-60
2023/11/05 12:22:37;;;;;;;;;;;;;;;12.29;73.69;97528.13;5062144;28;19930;-59
2023/11/05 12:25:03;;;;;;;;;;;;;;;12.28;73.51;97513.28;5062295;28;19920;-60
2023/11/05 12:27:29;;;;;;;;;;;;;;;12.26;73.77;97520.72;5062989;28;19930;-60
2023/11/05 12:29:54;;;;;;;;;;;;;;;12.28;74.20;97524.69;5063745;28;20987;-59
2023/11/05 12:32:52;;;;;;;;;;;;;;;12.25;73.98;97517.28;5062010;28;19924;-61
2023/11/05 12:35:18;;;;;;;;;;;;;;;12.24;73.91;97520.25;5048506;28;19927;-60
2023/11/05 12:37:43;;;;;;;;;;;;;;;12.21;74.37;97526.94;5060254;28;19924;-58
2023/11/05 12:40:09;;;;;;;;;;;;;;;12.20;74.41;97529.88;5060745;28;19935;-59
2023/11/05 12:42:38;;;;;;;;;;;;;;;12.21;74.34;97531.47;5057998;28;19931;-60
2023/11/05 12:45:04;;;;;;;;;;;;;;;12.19;74.54;97541.59;5068148;28;20332;-61